Terminal Aerodrome Forecast
Issued by NWS

Home | Current Version | Previous Version | Graphics & Text | Print | Product List | Glossary On
Versions: 1 2 3 4 5 6 7 8 9 10 11 12 13 14 15 16
527
FTUS43 KMPX 210316 AAA
TAFAXN
TAF AMD
KAXN 210316Z 2103/2124 04010KT 3SM -DZ BR OVC006
     FM210700 01010KT 1SM -DZ BR OVC004
     FM211400 33014G21KT 4SM BR VCSH OVC009
     FM211900 32014G20KT P6SM VCSH OVC015=

USA.gov is the U.S. government's official web portal to all federal, state and local government web resources and services.